sensor_id;sensor_type;location;lat;lon;timestamp;pressure;altitude;pressure_sealevel;temperature;humidity
10921;BME280;5513;50.580;8.818;2022-11-20T00:01:36;98669.94;;;0.62;100.00
10921;BME280;5513;50.580;8.818;2022-11-20T00:04:07;98665.56;;;0.62;100.00
10921;BME280;5513;50.580;8.818;2022-11-20T00:06:36;98662.16;;;0.60;100.00
10921;BME280;5513;50.580;8.818;2022-11-20T00:09:04;98664.44;;;0.71;100.00
10921;BME280;5513;50.580;8.818;2022-11-20T00:11:33;98662.06;;;0.63;100.00
10921;BME280;5513;50.580;8.818;2022-11-20T00:14:01;98660.94;;;0.44;100.00
10921;BME280;5513;50.580;8.818;2022-11-20T00:16:32;98658.78;;;0.56;100.00
10921;BME280;5513;50.580;8.818;2022-11-20T00:19:00;98649.81;;;0.65;100.00
10921;BME280;5513;50.580;8.818;2022-11-20T00:21:31;98659.34;;;0.66;100.00
10921;BME280;5513;50.580;8.818;2022-11-20T00:23:59;98661.81;;;0.71;100.00
10921;BME280;5513;50.580;8.818;2022-11-20T00:26:28;98661.66;;;0.75;100.00
10921;BME280;5513;50.580;8.818;2022-11-20T00:28:58;98653.28;;;0.66;100.00
10921;BME280;5513;50.580;8.818;2022-11-20T00:31:28;98645.66;;;0.86;100.00
10921;BME280;5513;50.580;8.818;2022-11-20T00:33:57;98643.16;;;0.83;100.00
10921;BME280;5513;50.580;8.818;2022-11-20T00:36:27;98646.38;;;0.91;100.00
10921;BME280;5513;50.580;8.818;2022-11-20T00:38:58;98648.03;;;0.94;100.00
10921;BME280;5513;50.580;8.818;2022-11-20T00:41:28;98650.84;;;0.88;100.00
10921;BME280;5513;50.580;8.818;2022-11-20T00:43:56;98645.34;;;0.95;100.00
10921;BME280;5513;50.580;8.818;2022-11-20T00:46:26;98636.00;;;0.90;100.00
10921;BME280;5513;50.580;8.818;2022-11-20T00:48:55;98650.09;;;0.84;100.00
10921;BME280;5513;50.580;8.818;2022-11-20T00:51:26;98654.94;;;0.95;100.00
10921;BME280;5513;50.580;8.818;2022-11-20T00:53:57;98652.34;;;0.95;100.00
10921;BME280;5513;50.580;8.818;2022-11-20T00:56:27;98645.34;;;0.95;100.00
10921;BME280;5513;50.580;8.818;2022-11-20T00:58:59;98645.59;;;0.89;100.00
10921;BME280;5513;50.580;8.818;2022-11-20T01:01:28;98647.41;;;0.85;100.00
10921;BME280;5513;50.580;8.818;2022-11-20T01:03:58;98646.94;;;0.74;100.00
10921;BME280;5513;50.580;8.818;2022-11-20T01:06:30;98652.50;;;0.90;100.00
10921;BME280;5513;50.580;8.818;2022-11-20T01:09:01;98643.91;;;0.86;100.00
10921;BME280;5513;50.580;8.818;2022-11-20T01:11:33;98640.44;;;0.86;100.00
10921;BME280;5513;50.580;8.818;2022-11-20T01:14:03;98646.44;;;0.90;100.00
10921;BME280;5513;50.580;8.818;2022-11-20T01:16:35;98650.19;;;0.54;100.00
10921;BME280;5513;50.580;8.818;2022-11-20T01:19:05;98646.09;;;0.46;100.00
10921;BME280;5513;50.580;8.818;2022-11-20T01:21:36;98650.22;;;0.53;100.00
10921;BME280;5513;50.580;8.818;2022-11-20T01:24:09;98633.69;;;0.54;100.00
10921;BME280;5513;50.580;8.818;2022-11-20T01:26:41;98633.75;;;0.79;100.00
10921;BME280;5513;50.580;8.818;2022-11-20T01:29:15;98632.75;;;0.83;100.00
10921;BME280;5513;50.580;8.818;2022-11-20T01:31:47;98628.13;;;0.91;100.00
10921;BME280;5513;50.580;8.818;2022-11-20T01:34:17;98622.13;;;0.89;100.00
10921;BME280;5513;50.580;8.818;2022-11-20T01:36:46;98631.94;;;1.07;100.00
10921;BME280;5513;50.580;8.818;2022-11-20T01:39:18;98622.50;;;1.03;100.00
10921;BME280;5513;50.580;8.818;2022-11-20T01:41:49;98632.19;;;1.00;100.00
10921;BME280;5513;50.580;8.818;2022-11-20T01:44:52;98625.47;;;0.93;100.00
10921;BME280;5513;50.580;8.818;2022-11-20T01:47:25;98623.03;;;0.88;100.00
10921;BME280;5513;50.580;8.818;2022-11-20T01:49:57;98626.25;;;0.95;100.00
10921;BME280;5513;50.580;8.818;2022-11-20T01:52:31;98627.47;;;0.84;100.00
10921;BME280;5513;50.580;8.818;2022-11-20T01:55:06;98625.47;;;0.93;100.00
10921;BME280;5513;50.580;8.818;2022-11-20T01:57:35;98629.63;;;0.98;100.00
10921;BME280;5513;50.580;8.818;2022-11-20T02:00:07;98626.63;;;0.84;100.00
10921;BME280;5513;50.580;8.818;2022-11-20T02:02:37;98626.50;;;0.89;100.00
10921;BME280;5513;50.580;8.818;2022-11-20T02:05:14;98634.03;;;0.96;100.00
10921;BME280;5513;50.580;8.818;2022-11-20T02:07:46;98642.75;;;0.95;100.00
10921;BME280;5513;50.580;8.818;2022-11-20T02:10:16;98635.84;;;0.94;100.00
10921;BME280;5513;50.580;8.818;2022-11-20T02:12:44;98645.47;;;0.92;100.00
10921;BME280;5513;50.580;8.818;2022-11-20T02:15:32;98644.63;;;0.92;100.00
10921;BME280;5513;50.580;8.818;2022-11-20T02:18:01;98646.44;;;0.90;100.00
10921;BME280;5513;50.580;8.818;2022-11-20T02:20:30;98632.63;;;0.86;100.00
10921;BME280;5513;50.580;8.818;2022-11-20T02:23:03;98631.69;;;0.89;100.00
10921;BME280;5513;50.580;8.818;2022-11-20T02:25:41;98629.78;;;0.94;100.00
10921;BME280;5513;50.580;8.818;2022-11-20T02:28:12;98622.19;;;0.86;100.00
10921;BME280;5513;50.580;8.818;2022-11-20T02:30:40;98620.06;;;0.99;100.00
10921;BME280;5513;50.580;8.818;2022-11-20T02:33:08;98617.53;;;0.96;100.00
10921;BME280;5513;50.580;8.818;2022-11-20T02:35:45;98614.72;;;1.02;100.00
10921;BME280;5513;50.580;8.818;2022-11-20T02:38:15;98607.88;;;0.99;100.00
10921;BME280;5513;50.580;8.818;2022-11-20T02:40:45;98602.66;;;0.99;100.00
10921;BME280;5513;50.580;8.818;2022-11-20T02:43:19;98600.91;;;1.00;100.00
10921;BME280;5513;50.580;8.818;2022-11-20T02:45:48;98598.41;;;0.97;100.00
10921;BME280;5513;50.580;8.818;2022-11-20T02:48:18;98605.16;;;1.02;100.00
10921;BME280;5513;50.580;8.818;2022-11-20T02:50:51;98605.88;;;1.06;100.00
10921;BME280;5513;50.580;8.818;2022-11-20T02:53:20;98598.22;;;1.01;100.00
10921;BME280;5513;50.580;8.818;2022-11-20T02:55:50;98606.72;;;1.08;100.00
10921;BME280;5513;50.580;8.818;2022-11-20T02:58:18;98617.88;;;1.11;100.00
10921;BME280;5513;50.580;8.818;2022-11-20T03:00:46;98606.59;;;1.11;100.00
10921;BME280;5513;50.580;8.818;2022-11-20T03:03:15;98612.84;;;1.07;100.00
10921;BME280;5513;50.580;8.818;2022-11-20T03:05:43;98617.22;;;1.05;100.00
10921;BME280;5513;50.580;8.818;2022-11-20T03:08:11;98614.53;;;1.08;100.00
10921;BME280;5513;50.580;8.818;2022-11-20T03:10:40;98610.31;;;1.04;100.00
10921;BME280;5513;50.580;8.818;2022-11-20T03:13:10;98607.28;;;0.91;100.00
10921;BME280;5513;50.580;8.818;2022-11-20T03:15:39;98606.16;;;0.98;100.00
10921;BME280;5513;50.580;8.818;2022-11-20T03:18:07;98604.00;;;0.84;100.00
10921;BME280;5513;50.580;8.818;2022-11-20T03:20:35;98598.97;;;0.80;100.00
10921;BME280;5513;50.580;8.818;2022-11-20T03:23:03;98603.97;;;0.86;100.00
10921;BME280;5513;50.580;8.818;2022-11-20T03:25:32;98601.34;;;0.86;100.00
10921;BME280;5513;50.580;8.818;2022-11-20T03:28:01;98599.59;;;0.86;100.00
10921;BME280;5513;50.580;8.818;2022-11-20T03:30:31;98595.09;;;0.92;100.00
10921;BME280;5513;50.580;8.818;2022-11-20T03:33:00;98591.53;;;0.94;100.00
10921;BME280;5513;50.580;8.818;2022-11-20T03:35:28;98589.75;;;0.95;100.00
10921;BME280;5513;50.580;8.818;2022-11-20T03:37:57;98585.00;;;1.07;100.00
10921;BME280;5513;50.580;8.818;2022-11-20T03:40:25;98573.47;;;1.13;100.00
10921;BME280;5513;50.580;8.818;2022-11-20T03:42:53;98553.59;;;1.10;100.00
10921;BME280;5513;50.580;8.818;2022-11-20T03:45:22;98553.25;;;1.20;100.00
10921;BME280;5513;50.580;8.818;2022-11-20T03:47:52;98555.03;;;1.19;100.00
10921;BME280;5513;50.580;8.818;2022-11-20T03:50:20;98558.47;;;1.20;100.00
10921;BME280;5513;50.580;8.818;2022-11-20T03:52:49;98577.31;;;1.28;100.00
10921;BME280;5513;50.580;8.818;2022-11-20T03:55:17;98578.94;;;1.30;100.00
10921;BME280;5513;50.580;8.818;2022-11-20T03:57:46;98586.44;;;1.16;100.00
10921;BME280;5513;50.580;8.818;2022-11-20T04:00:15;98573.41;;;1.14;100.00
10921;BME280;5513;50.580;8.818;2022-11-20T04:02:43;98568.97;;;1.18;100.00
10921;BME280;5513;50.580;8.818;2022-11-20T04:05:13;98574.97;;;1.20;100.00
10921;BME280;5513;50.580;8.818;2022-11-20T04:07:42;98565.50;;;0.93;100.00
10921;BME280;5513;50.580;8.818;2022-11-20T04:10:11;98576.44;;;0.52;100.00
10921;BME280;5513;50.580;8.818;2022-11-20T04:12:39;98571.59;;;0.67;100.00
10921;BME280;5513;50.580;8.818;2022-11-20T04:15:08;98580.38;;;0.64;100.00
10921;BME280;5513;50.580;8.818;2022-11-20T04:17:36;98578.59;;;0.91;100.00
10921;BME280;5513;50.580;8.818;2022-11-20T04:20:06;98582.00;;;0.93;100.00
10921;BME280;5513;50.580;8.818;2022-11-20T04:22:36;98584.28;;;1.02;100.00
10921;BME280;5513;50.580;8.818;2022-11-20T04:25:05;98578.09;;;1.05;100.00
10921;BME280;5513;50.580;8.818;2022-11-20T04:27:34;98559.19;;;1.23;100.00
10921;BME280;5513;50.580;8.818;2022-11-20T04:30:02;98553.00;;;1.27;100.00
10921;BME280;5513;50.580;8.818;2022-11-20T04:32:32;98556.50;;;1.26;100.00
10921;BME280;5513;50.580;8.818;2022-11-20T04:35:00;98547.44;;;1.36;100.00
10921;BME280;5513;50.580;8.818;2022-11-20T04:37:29;98557.13;;;1.33;100.00
10921;BME280;5513;50.580;8.818;2022-11-20T04:40:00;98563.03;;;1.38;100.00
10921;BME280;5513;50.580;8.818;2022-11-20T04:42:28;98567.09;;;1.22;100.00
10921;BME280;5513;50.580;8.818;2022-11-20T04:44:58;98562.78;;;1.21;100.00
10921;BME280;5513;50.580;8.818;2022-11-20T04:47:26;98566.59;;;1.35;100.00
10921;BME280;5513;50.580;8.818;2022-11-20T04:49:55;98557.06;;;1.34;100.00
10921;BME280;5513;50.580;8.818;2022-11-20T04:52:26;98549.13;;;1.37;100.00
10921;BME280;5513;50.580;8.818;2022-11-20T04:54:55;98543.00;;;1.38;100.00
10921;BME280;5513;50.580;8.818;2022-11-20T04:57:27;98546.56;;;1.59;100.00
10921;BME280;5513;50.580;8.818;2022-11-20T04:59:55;98538.31;;;1.48;100.00
10921;BME280;5513;50.580;8.818;2022-11-20T05:02:24;98538.44;;;1.43;100.00
10921;BME280;5513;50.580;8.818;2022-11-20T05:04:53;98534.38;;;1.60;100.00
10921;BME280;5513;50.580;8.818;2022-11-20T05:07:23;98542.31;;;1.33;100.00
10921;BME280;5513;50.580;8.818;2022-11-20T05:09:51;98551.09;;;1.31;100.00
10921;BME280;5513;50.580;8.818;2022-11-20T05:12:19;98556.38;;;1.29;100.00
10921;BME280;5513;50.580;8.818;2022-11-20T05:14:49;98577.72;;;1.40;100.00
10921;BME280;5513;50.580;8.818;2022-11-20T05:17:17;98576.16;;;1.35;100.00
10921;BME280;5513;50.580;8.818;2022-11-20T05:19:46;98581.56;;;1.30;100.00
10921;BME280;5513;50.580;8.818;2022-11-20T05:22:20;98583.06;;;1.12;100.00
10921;BME280;5513;50.580;8.818;2022-11-20T05:24:49;98582.06;;;1.17;100.00
10921;BME280;5513;50.580;8.818;2022-11-20T05:27:17;98564.28;;;1.03;100.00
10921;BME280;5513;50.580;8.818;2022-11-20T05:29:46;98561.69;;;1.03;100.00
10921;BME280;5513;50.580;8.818;2022-11-20T05:32:16;98571.56;;;1.18;100.00
10921;BME280;5513;50.580;8.818;2022-11-20T05:34:44;98562.31;;;1.09;100.00
10921;BME280;5513;50.580;8.818;2022-11-20T05:37:12;98570.94;;;1.11;100.00
10921;BME280;5513;50.580;8.818;2022-11-20T05:39:41;98574.88;;;0.98;100.00
10921;BME280;5513;50.580;8.818;2022-11-20T05:42:09;98579.13;;;1.01;100.00
10921;BME280;5513;50.580;8.818;2022-11-20T05:44:55;98577.31;;;1.03;100.00
10921;BME280;5513;50.580;8.818;2022-11-20T05:47:25;98588.72;;;1.00;100.00
10921;BME280;5513;50.580;8.818;2022-11-20T05:49:53;98571.84;;;1.10;100.00
10921;BME280;5513;50.580;8.818;2022-11-20T05:52:24;98566.56;;;1.12;100.00
10921;BME280;5513;50.580;8.818;2022-11-20T05:54:52;98544.97;;;1.08;100.00
10921;BME280;5513;50.580;8.818;2022-11-20T05:57:21;98542.75;;;1.21;100.00
10921;BME280;5513;50.580;8.818;2022-11-20T05:59:50;98543.56;;;1.23;100.00
10921;BME280;5513;50.580;8.818;2022-11-20T06:02:19;98544.53;;;1.21;100.00
10921;BME280;5513;50.580;8.818;2022-11-20T06:04:49;98551.50;;;0.95;100.00
10921;BME280;5513;50.580;8.818;2022-11-20T06:07:17;98537.16;;;1.08;100.00
10921;BME280;5513;50.580;8.818;2022-11-20T06:09:45;98534.59;;;1.30;100.00
10921;BME280;5513;50.580;8.818;2022-11-20T06:12:13;98539.03;;;1.28;100.00
10921;BME280;5513;50.580;8.818;2022-11-20T06:14:42;98541.06;;;1.20;100.00
10921;BME280;5513;50.580;8.818;2022-11-20T06:17:10;98540.84;;;1.26;100.00
10921;BME280;5513;50.580;8.818;2022-11-20T06:19:43;98536.25;;;1.33;100.00
10921;BME280;5513;50.580;8.818;2022-11-20T06:22:13;98540.09;;;1.23;100.00
10921;BME280;5513;50.580;8.818;2022-11-20T06:24:43;98539.13;;;1.25;100.00
10921;BME280;5513;50.580;8.818;2022-11-20T06:27:13;98540.00;;;1.26;100.00
10921;BME280;5513;50.580;8.818;2022-11-20T06:29:41;98538.34;;;1.23;100.00
10921;BME280;5513;50.580;8.818;2022-11-20T06:32:11;98530.09;;;1.35;100.00
10921;BME280;5513;50.580;8.818;2022-11-20T06:34:40;98544.31;;;1.27;100.00
10921;BME280;5513;50.580;8.818;2022-11-20T06:37:12;98539.03;;;1.28;100.00
10921;BME280;5513;50.580;8.818;2022-11-20T06:39:41;98538.41;;;1.22;100.00
10921;BME280;5513;50.580;8.818;2022-11-20T06:42:09;98540.56;;;1.34;100.00
10921;BME280;5513;50.580;8.818;2022-11-20T06:44:37;98541.72;;;1.27;100.00
10921;BME280;5513;50.580;8.818;2022-11-20T06:47:06;98541.78;;;1.24;100.00
10921;BME280;5513;50.580;8.818;2022-11-20T06:49:35;98541.53;;;1.31;100.00
10921;BME280;5513;50.580;8.818;2022-11-20T06:52:05;98542.38;;;1.32;100.00
10921;BME280;5513;50.580;8.818;2022-11-20T06:54:34;98543.06;;;1.37;100.00
10921;BME280;5513;50.580;8.818;2022-11-20T06:57:03;98540.53;;;1.35;100.00
10921;BME280;5513;50.580;8.818;2022-11-20T06:59:31;98545.38;;;1.21;100.00
10921;BME280;5513;50.580;8.818;2022-11-20T07:02:02;98545.84;;;1.32;100.00
10921;BME280;5513;50.580;8.818;2022-11-20T07:04:30;98543.97;;;1.36;100.00
10921;BME280;5513;50.580;8.818;2022-11-20T07:06:58;98551.84;;;1.34;100.00
10921;BME280;5513;50.580;8.818;2022-11-20T07:09:30;98549.19;;;1.36;100.00
10921;BME280;5513;50.580;8.818;2022-11-20T07:12:00;98544.78;;;1.38;100.00
10921;BME280;5513;50.580;8.818;2022-11-20T07:14:29;98536.88;;;1.39;100.00
10921;BME280;5513;50.580;8.818;2022-11-20T07:16:57;98546.28;;;1.43;100.00
10921;BME280;5513;50.580;8.818;2022-11-20T07:19:25;98538.44;;;1.43;100.00
10921;BME280;5513;50.580;8.818;2022-11-20T07:21:54;98541.06;;;1.43;100.00
10921;BME280;5513;50.580;8.818;2022-11-20T07:24:23;98549.47;;;1.52;100.00
10921;BME280;5513;50.580;8.818;2022-11-20T07:26:53;98555.31;;;1.58;100.00
10921;BME280;5513;50.580;8.818;2022-11-20T07:29:29;98563.47;;;1.49;100.00
10921;BME280;5513;50.580;8.818;2022-11-20T07:31:57;98553.94;;;1.48;100.00
10921;BME280;5513;50.580;8.818;2022-11-20T07:34:26;98565.50;;;1.41;100.00
10921;BME280;5513;50.580;8.818;2022-11-20T07:36:55;98566.72;;;1.56;100.00
10921;BME280;5513;50.580;8.818;2022-11-20T07:39:23;98567.50;;;1.58;100.00
10921;BME280;5513;50.580;8.818;2022-11-20T07:41:51;98558.19;;;1.51;100.00
10921;BME280;5513;50.580;8.818;2022-11-20T07:44:19;98560.94;;;1.48;100.00
10921;BME280;5513;50.580;8.818;2022-11-20T07:46:50;98566.94;;;1.50;100.00
10921;BME280;5513;50.580;8.818;2022-11-20T07:49:18;98570.25;;;1.55;100.00
10921;BME280;5513;50.580;8.818;2022-11-20T07:51:50;98572.88;;;1.53;100.00
10921;BME280;5513;50.580;8.818;2022-11-20T07:54:18;98577.91;;;1.34;100.00
10921;BME280;5513;50.580;8.818;2022-11-20T07:56:46;98579.13;;;1.49;100.00
10921;BME280;5513;50.580;8.818;2022-11-20T07:59:15;98581.34;;;1.36;100.00
10921;BME280;5513;50.580;8.818;2022-11-20T08:01:43;98587.19;;;1.43;100.00
10921;BME280;5513;50.580;8.818;2022-11-20T08:04:14;98578.56;;;1.41;100.00
10921;BME280;5513;50.580;8.818;2022-11-20T08:06:43;98593.69;;;1.31;100.00
10921;BME280;5513;50.580;8.818;2022-11-20T08:09:12;98595.66;;;1.25;100.00
10921;BME280;5513;50.580;8.818;2022-11-20T08:11:40;98593.53;;;1.36;100.00
10921;BME280;5513;50.580;8.818;2022-11-20T08:14:25;98589.13;;;1.38;100.00
10921;BME280;5513;50.580;8.818;2022-11-20T08:16:55;98598.69;;;1.37;100.00
10921;BME280;5513;50.580;8.818;2022-11-20T08:19:25;98585.81;;;1.33;100.00
10921;BME280;5513;50.580;8.818;2022-11-20T08:21:54;98599.13;;;1.25;100.00
10921;BME280;5513;50.580;8.818;2022-11-20T08:24:23;98597.56;;;1.44;100.00
10921;BME280;5513;50.580;8.818;2022-11-20T08:26:53;98601.44;;;1.58;100.00
10921;BME280;5513;50.580;8.818;2022-11-20T08:29:26;98591.00;;;1.58;100.00
10921;BME280;5513;50.580;8.818;2022-11-20T08:31:55;98590.63;;;1.43;100.00
10921;BME280;5513;50.580;8.818;2022-11-20T08:34:25;98593.16;;;1.47;100.00
10921;BME280;5513;50.580;8.818;2022-11-20T08:36:53;98589.13;;;1.38;100.00
10921;BME280;5513;50.580;8.818;2022-11-20T08:39:22;98594.91;;;1.69;100.00
10921;BME280;5513;50.580;8.818;2022-11-20T08:41:50;98594.41;;;1.60;100.00
10921;BME280;5513;50.580;8.818;2022-11-20T08:44:18;98603.47;;;1.73;100.00
10921;BME280;5513;50.580;8.818;2022-11-20T08:46:47;98593.22;;;1.68;100.00
10921;BME280;5513;50.580;8.818;2022-11-20T08:49:16;98602.59;;;1.74;100.00
10921;BME280;5513;50.580;8.818;2022-11-20T08:51:46;98596.13;;;1.83;100.00
10921;BME280;5513;50.580;8.818;2022-11-20T08:54:18;98607.84;;;1.72;100.00
10921;BME280;5513;50.580;8.818;2022-11-20T08:56:48;98609.19;;;1.83;100.00
10921;BME280;5513;50.580;8.818;2022-11-20T08:59:16;98619.78;;;2.01;100.00
10921;BME280;5513;50.580;8.818;2022-11-20T09:02:05;98616.44;;;1.98;100.00
10921;BME280;5513;50.580;8.818;2022-11-20T09:04:34;98621.94;;;2.14;100.00
10921;BME280;5513;50.580;8.818;2022-11-20T09:07:04;98623.72;;;1.90;100.00
10921;BME280;5513;50.580;8.818;2022-11-20T09:09:33;98620.25;;;1.89;100.00
10921;BME280;5513;50.580;8.818;2022-11-20T09:12:02;98619.63;;;2.06;100.00
10921;BME280;5513;50.580;8.818;2022-11-20T09:14:30;98617.75;;;2.10;100.00
10921;BME280;5513;50.580;8.818;2022-11-20T09:16:59;98629.28;;;2.04;100.00
10921;BME280;5513;50.580;8.818;2022-11-20T09:19:28;98619.03;;;2.21;100.00
10921;BME280;5513;50.580;8.818;2022-11-20T09:22:04;98623.66;;;2.37;100.00
10921;BME280;5513;50.580;8.818;2022-11-20T09:24:33;98627.97;;;2.38;100.00
10921;BME280;5513;50.580;8.818;2022-11-20T09:27:04;98614.97;;;2.36;100.00
10921;BME280;5513;50.580;8.818;2022-11-20T09:29:33;98613.91;;;2.40;100.00
10921;BME280;5513;50.580;8.818;2022-11-20T09:32:01;98623.16;;;2.49;100.00
10921;BME280;5513;50.580;8.818;2022-11-20T09:34:30;98623.22;;;2.47;100.00
10921;BME280;5513;50.580;8.818;2022-11-20T09:37:00;98624.84;;;2.50;100.00
10921;BME280;5513;50.580;8.818;2022-11-20T09:39:34;98627.19;;;2.36;100.00
10921;BME280;5513;50.580;8.818;2022-11-20T09:42:17;98617.94;;;2.49;100.00
10921;BME280;5513;50.580;8.818;2022-11-20T09:44:59;98615.53;;;2.44;100.00
10921;BME280;5513;50.580;8.818;2022-11-20T09:47:37;98624.81;;;2.51;100.00
10921;BME280;5513;50.580;8.818;2022-11-20T09:50:23;98620.56;;;2.49;100.00
10921;BME280;5513;50.580;8.818;2022-11-20T09:53:08;98630.94;;;2.50;100.00
10921;BME280;5513;50.580;8.818;2022-11-20T09:55:41;98622.44;;;2.45;100.00
10921;BME280;5513;50.580;8.818;2022-11-20T09:58:16;98625.34;;;2.38;100.00
10921;BME280;5513;50.580;8.818;2022-11-20T10:00:51;98624.44;;;2.17;100.00
10921;BME280;5513;50.580;8.818;2022-11-20T10:03:35;98621.53;;;2.24;100.00
10921;BME280;5513;50.580;8.818;2022-11-20T10:06:10;98610.88;;;2.29;100.00
10921;BME280;5513;50.580;8.818;2022-11-20T10:08:43;98614.78;;;2.41;100.00
10921;BME280;5513;50.580;8.818;2022-11-20T10:11:19;98615.47;;;2.46;100.00
10921;BME280;5513;50.580;8.818;2022-11-20T10:13:59;98611.91;;;2.69;100.00
10921;BME280;5513;50.580;8.818;2022-11-20T10:16:41;98604.19;;;2.66;100.00
10921;BME280;5513;50.580;8.818;2022-11-20T10:19:26;98608.72;;;2.82;100.00
10921;BME280;5513;50.580;8.818;2022-11-20T10:22:08;98600.22;;;2.98;100.00
10921;BME280;5513;50.580;8.818;2022-11-20T10:24:51;98603.19;;;3.10;100.00
10921;BME280;5513;50.580;8.818;2022-11-20T10:30:26;98585.78;;;2.89;100.00
10921;BME280;5513;50.580;8.818;2022-11-20T10:33:01;98585.66;;;2.50;100.00
10921;BME280;5513;50.580;8.818;2022-11-20T10:35:36;98588.19;;;2.73;100.00
10921;BME280;5513;50.580;8.818;2022-11-20T10:38:14;98584.22;;;2.85;100.00
10921;BME280;5513;50.580;8.818;2022-11-20T10:40:47;98578.06;;;3.06;100.00
10921;BME280;5513;50.580;8.818;2022-11-20T10:43:21;98573.31;;;3.35;100.00
10921;BME280;5513;50.580;8.818;2022-11-20T10:45:58;98572.06;;;3.04;100.00
10921;BME280;5513;50.580;8.818;2022-11-20T10:48:31;98568.06;;;2.96;100.00
10921;BME280;5513;50.580;8.818;2022-11-20T10:51:13;98566.97;;;2.81;100.00
10921;BME280;5513;50.580;8.818;2022-11-20T10:53:53;98572.66;;;3.11;100.00
10921;BME280;5513;50.580;8.818;2022-11-20T10:56:27;98570.47;;;3.21;100.00
10921;BME280;5513;50.580;8.818;2022-11-20T10:59:14;98569.34;;;2.65;100.00
10921;BME280;5513;50.580;8.818;2022-11-20T11:01:51;98564.91;;;2.67;100.00
10921;BME280;5513;50.580;8.818;2022-11-20T11:04:35;98563.13;;;2.90;100.00
10921;BME280;5513;50.580;8.818;2022-11-20T11:07:10;98564.13;;;3.06;100.00
10921;BME280;5513;50.580;8.818;2022-11-20T11:09:43;98567.28;;;3.14;100.00
10921;BME280;5513;50.580;8.818;2022-11-20T11:12:15;98563.13;;;2.47;100.00
10921;BME280;5513;50.580;8.818;2022-11-20T11:14:47;98564.81;;;2.48;100.00
10921;BME280;5513;50.580;8.818;2022-11-20T11:17:21;98574.81;;;2.81;100.00
10921;BME280;5513;50.580;8.818;2022-11-20T11:20:03;98563.22;;;2.66;100.00
10921;BME280;5513;50.580;8.818;2022-11-20T11:22:34;98555.41;;;2.44;100.00
10921;BME280;5513;50.580;8.818;2022-11-20T11:25:03;98555.03;;;2.53;100.00
10921;BME280;5513;50.580;8.818;2022-11-20T11:27:32;98553.81;;;2.40;100.00
10921;BME280;5513;50.580;8.818;2022-11-20T11:30:14;98547.94;;;2.35;100.00
10921;BME280;5513;50.580;8.818;2022-11-20T11:32:43;98553.72;;;2.43;100.00
10921;BME280;5513;50.580;8.818;2022-11-20T11:35:24;98558.13;;;2.63;100.00
10921;BME280;5513;50.580;8.818;2022-11-20T11:38:02;98554.22;;;2.73;100.00
10921;BME280;5513;50.580;8.818;2022-11-20T11:40:32;98546.63;;;2.87;100.00
10921;BME280;5513;50.580;8.818;2022-11-20T11:43:05;98547.38;;;3.30;100.00
10921;BME280;5513;50.580;8.818;2022-11-20T11:46:04;98549.25;;;3.27;100.00
10921;BME280;5513;50.580;8.818;2022-11-20T11:48:32;98535.56;;;3.40;100.00
10921;BME280;5513;50.580;8.818;2022-11-20T11:51:01;98533.78;;;3.22;100.00
10921;BME280;5513;50.580;8.818;2022-11-20T11:53:30;98541.97;;;3.14;100.00
10921;BME280;5513;50.580;8.818;2022-11-20T11:56:07;98530.06;;;2.67;100.00
10921;BME280;5513;50.580;8.818;2022-11-20T11:58:43;98530.06;;;2.87;100.00
10921;BME280;5513;50.580;8.818;2022-11-20T12:01:24;98525.16;;;2.79;100.00
10921;BME280;5513;50.580;8.818;2022-11-20T12:04:00;98523.00;;;2.89;100.00
10921;BME280;5513;50.580;8.818;2022-11-20T12:06:32;98521.00;;;2.75;100.00
10921;BME280;5513;50.580;8.818;2022-11-20T12:09:09;98519.94;;;2.79;100.00
10921;BME280;5513;50.580;8.818;2022-11-20T12:11:43;98529.53;;;2.79;100.00
10921;BME280;5513;50.580;8.818;2022-11-20T12:14:16;98522.91;;;2.92;100.00
10921;BME280;5513;50.580;8.818;2022-11-20T12:16:52;98517.91;;;3.06;100.00
10921;BME280;5513;50.580;8.818;2022-11-20T12:19:22;98519.81;;;3.03;100.00
10921;BME280;5513;50.580;8.818;2022-11-20T12:21:57;98521.19;;;2.91;100.00
10921;BME280;5513;50.580;8.818;2022-11-20T12:24:42;98515.47;;;3.22;100.00
10921;BME280;5513;50.580;8.818;2022-11-20T12:30:21;98518.50;;;3.32;100.00
10921;BME280;5513;50.580;8.818;2022-11-20T12:33:07;98508.66;;;3.37;100.00
10921;BME280;5513;50.580;8.818;2022-11-20T12:36:02;98499.13;;;3.55;100.00
10921;BME280;5513;50.580;8.818;2022-11-20T12:38:55;98495.81;;;3.51;100.00
10921;BME280;5513;50.580;8.818;2022-11-20T12:41:40;98490.22;;;3.21;100.00
10921;BME280;5513;50.580;8.818;2022-11-20T12:47:46;98483.72;;;3.67;100.00
10921;BME280;5513;50.580;8.818;2022-11-20T12:50:30;98483.22;;;3.78;100.00
10921;BME280;5513;50.580;8.818;2022-11-20T12:53:27;98486.81;;;3.76;100.00
10921;BME280;5513;50.580;8.818;2022-11-20T12:56:09;98479.59;;;3.62;100.00
10921;BME280;5513;50.580;8.818;2022-11-20T12:58:50;98484.75;;;3.26;100.00
10921;BME280;5513;50.580;8.818;2022-11-20T13:01:30;98481.28;;;3.25;100.00
10921;BME280;5513;50.580;8.818;2022-11-20T13:04:19;98473.19;;;3.69;100.00
10921;BME280;5513;50.580;8.818;2022-11-20T13:06:54;98475.06;;;3.65;100.00
10921;BME280;5513;50.580;8.818;2022-11-20T13:09:24;98474.94;;;3.50;100.00
10921;BME280;5513;50.580;8.818;2022-11-20T13:12:02;98469.78;;;3.48;100.00
10921;BME280;5513;50.580;8.818;2022-11-20T13:14:37;98466.78;;;3.56;100.00
10921;BME280;5513;50.580;8.818;2022-11-20T13:17:13;98464.41;;;3.70;100.00
10921;BME280;5513;50.580;8.818;2022-11-20T13:19:48;98462.75;;;3.86;100.00
10921;BME280;5513;50.580;8.818;2022-11-20T13:22:26;98465.91;;;3.93;100.00
10921;BME280;5513;50.580;8.818;2022-11-20T13:24:55;98459.25;;;3.86;100.00
10921;BME280;5513;50.580;8.818;2022-11-20T13:27:24;98452.72;;;3.77;100.00
10921;BME280;5513;50.580;8.818;2022-11-20T13:30:02;98444.91;;;3.76;100.00
10921;BME280;5513;50.580;8.818;2022-11-20T13:32:31;98455.66;;;3.88;100.00
10921;BME280;5513;50.580;8.818;2022-11-20T13:35:01;98438.53;;;3.81;100.00
10921;BME280;5513;50.580;8.818;2022-11-20T13:37:33;98446.25;;;3.84;100.00
10921;BME280;5513;50.580;8.818;2022-11-20T13:40:21;98433.47;;;3.95;100.00
10921;BME280;5513;50.580;8.818;2022-11-20T13:43:02;98436.88;;;3.97;100.00
10921;BME280;5513;50.580;8.818;2022-11-20T13:45:32;98430.25;;;4.08;100.00